sensor_id;sensor_type;location;lat;lon;timestamp;P1;durP1;ratioP1;P2;durP2;ratioP2
3333;SDS011;1679;50.392;8.008;2022-11-20T00:00:50;17.67;;;11.57;;
3333;SDS011;1679;50.392;8.008;2022-11-20T00:03:16;18.20;;;11.20;;
3333;SDS011;1679;50.392;8.008;2022-11-20T00:05:42;19.63;;;13.23;;
3333;SDS011;1679;50.392;8.008;2022-11-20T00:08:08;18.37;;;11.90;;
3333;SDS011;1679;50.392;8.008;2022-11-20T00:10:36;18.07;;;11.60;;
3333;SDS011;1679;50.392;8.008;2022-11-20T00:13:02;17.93;;;12.30;;
3333;SDS011;1679;50.392;8.008;2022-11-20T00:15:28;20.37;;;12.40;;
3333;SDS011;1679;50.392;8.008;2022-11-20T00:17:54;15.43;;;11.97;;
3333;SDS011;1679;50.392;8.008;2022-11-20T00:20:19;16.87;;;11.53;;
3333;SDS011;1679;50.392;8.008;2022-11-20T00:22:45;18.03;;;11.10;;
3333;SDS011;1679;50.392;8.008;2022-11-20T00:25:10;14.80;;;10.73;;
3333;SDS011;1679;50.392;8.008;2022-11-20T00:27:36;17.03;;;11.73;;
3333;SDS011;1679;50.392;8.008;2022-11-20T00:30:02;18.27;;;12.40;;
3333;SDS011;1679;50.392;8.008;2022-11-20T00:32:29;19.90;;;11.77;;
3333;SDS011;1679;50.392;8.008;2022-11-20T00:34:55;19.30;;;11.80;;
3333;SDS011;1679;50.392;8.008;2022-11-20T00:37:20;19.83;;;12.00;;
3333;SDS011;1679;50.392;8.008;2022-11-20T00:39:46;18.43;;;12.60;;
3333;SDS011;1679;50.392;8.008;2022-11-20T00:42:11;18.53;;;12.10;;
3333;SDS011;1679;50.392;8.008;2022-11-20T00:44:37;18.47;;;12.10;;
3333;SDS011;1679;50.392;8.008;2022-11-20T00:47:02;18.00;;;12.17;;
3333;SDS011;1679;50.392;8.008;2022-11-20T00:49:28;21.87;;;13.40;;
3333;SDS011;1679;50.392;8.008;2022-11-20T00:51:53;18.00;;;12.53;;
3333;SDS011;1679;50.392;8.008;2022-11-20T00:54:19;21.17;;;12.03;;
3333;SDS011;1679;50.392;8.008;2022-11-20T00:56:44;18.03;;;11.33;;
3333;SDS011;1679;50.392;8.008;2022-11-20T00:59:10;19.63;;;12.90;;
3333;SDS011;1679;50.392;8.008;2022-11-20T01:01:35;16.73;;;12.20;;
3333;SDS011;1679;50.392;8.008;2022-11-20T01:04:02;23.20;;;13.40;;
3333;SDS011;1679;50.392;8.008;2022-11-20T01:06:29;22.40;;;14.20;;
3333;SDS011;1679;50.392;8.008;2022-11-20T01:08:56;18.33;;;12.37;;
3333;SDS011;1679;50.392;8.008;2022-11-20T01:11:27;20.70;;;12.93;;
3333;SDS011;1679;50.392;8.008;2022-11-20T01:13:54;16.90;;;11.67;;
3333;SDS011;1679;50.392;8.008;2022-11-20T01:16:25;22.00;;;13.33;;
3333;SDS011;1679;50.392;8.008;2022-11-20T01:18:54;19.53;;;12.80;;
3333;SDS011;1679;50.392;8.008;2022-11-20T01:21:25;21.70;;;12.77;;
3333;SDS011;1679;50.392;8.008;2022-11-20T01:23:55;19.13;;;12.07;;
3333;SDS011;1679;50.392;8.008;2022-11-20T01:26:23;20.20;;;12.37;;
3333;SDS011;1679;50.392;8.008;2022-11-20T01:28:51;18.07;;;12.30;;
3333;SDS011;1679;50.392;8.008;2022-11-20T01:31:17;17.53;;;11.50;;
3333;SDS011;1679;50.392;8.008;2022-11-20T01:33:43;16.60;;;11.90;;
3333;SDS011;1679;50.392;8.008;2022-11-20T01:36:10;20.60;;;13.27;;
3333;SDS011;1679;50.392;8.008;2022-11-20T01:38:36;23.83;;;13.50;;
3333;SDS011;1679;50.392;8.008;2022-11-20T01:41:02;20.40;;;13.20;;
3333;SDS011;1679;50.392;8.008;2022-11-20T01:43:28;22.80;;;14.17;;
3333;SDS011;1679;50.392;8.008;2022-11-20T01:46:05;22.80;;;14.10;;
3333;SDS011;1679;50.392;8.008;2022-11-20T01:51:15;24.23;;;14.47;;
3333;SDS011;1679;50.392;8.008;2022-11-20T01:53:54;23.90;;;14.10;;
3333;SDS011;1679;50.392;8.008;2022-11-20T01:56:24;24.07;;;15.27;;
3333;SDS011;1679;50.392;8.008;2022-11-20T01:58:52;18.20;;;12.20;;
3333;SDS011;1679;50.392;8.008;2022-11-20T02:01:21;22.77;;;13.63;;
3333;SDS011;1679;50.392;8.008;2022-11-20T02:03:47;17.70;;;12.37;;
3333;SDS011;1679;50.392;8.008;2022-11-20T02:08:39;20.80;;;13.83;;
3333;SDS011;1679;50.392;8.008;2022-11-20T02:11:05;21.37;;;13.73;;
3333;SDS011;1679;50.392;8.008;2022-11-20T02:13:31;22.80;;;13.23;;
3333;SDS011;1679;50.392;8.008;2022-11-20T02:16:12;22.83;;;13.90;;
3333;SDS011;1679;50.392;8.008;2022-11-20T02:18:41;22.07;;;13.10;;
3333;SDS011;1679;50.392;8.008;2022-11-20T02:21:10;21.13;;;13.67;;
3333;SDS011;1679;50.392;8.008;2022-11-20T02:26:24;19.17;;;13.43;;
3333;SDS011;1679;50.392;8.008;2022-11-20T02:28:52;21.80;;;13.53;;
3333;SDS011;1679;50.392;8.008;2022-11-20T02:31:19;20.10;;;12.80;;
3333;SDS011;1679;50.392;8.008;2022-11-20T02:33:44;20.43;;;12.60;;
3333;SDS011;1679;50.392;8.008;2022-11-20T02:36:11;20.73;;;13.50;;
3333;SDS011;1679;50.392;8.008;2022-11-20T02:38:39;19.87;;;13.07;;
3333;SDS011;1679;50.392;8.008;2022-11-20T02:41:04;23.13;;;13.83;;
3333;SDS011;1679;50.392;8.008;2022-11-20T02:43:30;21.10;;;13.47;;
3333;SDS011;1679;50.392;8.008;2022-11-20T02:45:56;23.70;;;13.37;;
3333;SDS011;1679;50.392;8.008;2022-11-20T02:48:21;22.00;;;13.10;;
3333;SDS011;1679;50.392;8.008;2022-11-20T02:50:47;23.23;;;14.30;;
3333;SDS011;1679;50.392;8.008;2022-11-20T02:53:12;21.20;;;13.87;;
3333;SDS011;1679;50.392;8.008;2022-11-20T02:55:38;20.67;;;14.07;;
3333;SDS011;1679;50.392;8.008;2022-11-20T02:58:03;23.00;;;14.17;;
3333;SDS011;1679;50.392;8.008;2022-11-20T03:00:29;19.03;;;12.63;;
3333;SDS011;1679;50.392;8.008;2022-11-20T03:02:54;20.87;;;12.60;;
3333;SDS011;1679;50.392;8.008;2022-11-20T03:05:20;18.37;;;12.43;;
3333;SDS011;1679;50.392;8.008;2022-11-20T03:07:46;22.10;;;13.80;;
3333;SDS011;1679;50.392;8.008;2022-11-20T03:10:11;22.23;;;13.90;;
3333;SDS011;1679;50.392;8.008;2022-11-20T03:12:37;21.43;;;14.13;;
3333;SDS011;1679;50.392;8.008;2022-11-20T03:15:02;21.83;;;14.23;;
3333;SDS011;1679;50.392;8.008;2022-11-20T03:17:28;24.07;;;15.13;;
3333;SDS011;1679;50.392;8.008;2022-11-20T03:19:55;24.43;;;13.97;;
3333;SDS011;1679;50.392;8.008;2022-11-20T03:22:21;22.27;;;13.83;;
3333;SDS011;1679;50.392;8.008;2022-11-20T03:24:46;23.63;;;14.20;;
3333;SDS011;1679;50.392;8.008;2022-11-20T03:27:12;21.97;;;13.30;;
3333;SDS011;1679;50.392;8.008;2022-11-20T03:29:37;21.47;;;13.80;;
3333;SDS011;1679;50.392;8.008;2022-11-20T03:32:03;21.27;;;13.77;;
3333;SDS011;1679;50.392;8.008;2022-11-20T03:34:29;19.87;;;12.00;;
3333;SDS011;1679;50.392;8.008;2022-11-20T03:36:54;19.63;;;13.33;;
3333;SDS011;1679;50.392;8.008;2022-11-20T03:39:20;25.87;;;13.60;;
3333;SDS011;1679;50.392;8.008;2022-11-20T03:41:45;22.93;;;13.73;;
3333;SDS011;1679;50.392;8.008;2022-11-20T03:44:11;19.07;;;13.07;;
3333;SDS011;1679;50.392;8.008;2022-11-20T03:46:36;22.33;;;14.17;;
3333;SDS011;1679;50.392;8.008;2022-11-20T03:49:02;21.00;;;13.40;;
3333;SDS011;1679;50.392;8.008;2022-11-20T03:51:29;25.20;;;14.47;;
3333;SDS011;1679;50.392;8.008;2022-11-20T03:54:00;23.43;;;13.43;;
3333;SDS011;1679;50.392;8.008;2022-11-20T03:56:28;23.60;;;13.20;;
3333;SDS011;1679;50.392;8.008;2022-11-20T03:58:55;26.13;;;16.20;;
3333;SDS011;1679;50.392;8.008;2022-11-20T04:01:22;21.23;;;14.53;;
3333;SDS011;1679;50.392;8.008;2022-11-20T04:03:56;23.20;;;13.90;;
3333;SDS011;1679;50.392;8.008;2022-11-20T04:06:22;23.30;;;14.10;;
3333;SDS011;1679;50.392;8.008;2022-11-20T04:08:49;21.70;;;13.83;;
3333;SDS011;1679;50.392;8.008;2022-11-20T04:13:46;23.63;;;15.70;;
3333;SDS011;1679;50.392;8.008;2022-11-20T04:16:16;23.50;;;14.00;;
3333;SDS011;1679;50.392;8.008;2022-11-20T04:18:42;23.90;;;14.33;;
3333;SDS011;1679;50.392;8.008;2022-11-20T04:21:08;22.80;;;13.90;;
3333;SDS011;1679;50.392;8.008;2022-11-20T04:23:34;23.33;;;14.90;;
3333;SDS011;1679;50.392;8.008;2022-11-20T04:26:04;22.77;;;14.20;;
3333;SDS011;1679;50.392;8.008;2022-11-20T04:28:32;21.63;;;14.03;;
3333;SDS011;1679;50.392;8.008;2022-11-20T04:31:04;24.77;;;14.97;;
3333;SDS011;1679;50.392;8.008;2022-11-20T04:33:32;24.47;;;14.07;;
3333;SDS011;1679;50.392;8.008;2022-11-20T04:36:05;24.63;;;15.27;;
3333;SDS011;1679;50.392;8.008;2022-11-20T04:38:33;22.60;;;14.73;;
3333;SDS011;1679;50.392;8.008;2022-11-20T04:41:04;22.37;;;13.57;;
3333;SDS011;1679;50.392;8.008;2022-11-20T04:43:32;28.47;;;15.80;;
3333;SDS011;1679;50.392;8.008;2022-11-20T04:45:58;29.60;;;15.67;;
3333;SDS011;1679;50.392;8.008;2022-11-20T04:48:25;29.47;;;15.50;;
3333;SDS011;1679;50.392;8.008;2022-11-20T04:50:51;22.23;;;14.07;;
3333;SDS011;1679;50.392;8.008;2022-11-20T04:53:17;23.70;;;15.50;;
3333;SDS011;1679;50.392;8.008;2022-11-20T04:55:44;26.80;;;15.70;;
3333;SDS011;1679;50.392;8.008;2022-11-20T04:58:10;25.30;;;14.03;;
3333;SDS011;1679;50.392;8.008;2022-11-20T05:00:36;28.37;;;14.63;;
3333;SDS011;1679;50.392;8.008;2022-11-20T05:03:02;25.27;;;14.87;;
3333;SDS011;1679;50.392;8.008;2022-11-20T05:05:28;27.90;;;15.17;;
3333;SDS011;1679;50.392;8.008;2022-11-20T05:07:55;28.60;;;16.43;;
3333;SDS011;1679;50.392;8.008;2022-11-20T05:10:22;32.90;;;17.67;;
3333;SDS011;1679;50.392;8.008;2022-11-20T05:12:48;35.33;;;18.60;;
3333;SDS011;1679;50.392;8.008;2022-11-20T05:15:14;32.47;;;17.43;;
3333;SDS011;1679;50.392;8.008;2022-11-20T05:17:39;31.10;;;18.23;;
3333;SDS011;1679;50.392;8.008;2022-11-20T05:20:05;31.97;;;17.80;;
3333;SDS011;1679;50.392;8.008;2022-11-20T05:22:31;33.13;;;18.57;;
3333;SDS011;1679;50.392;8.008;2022-11-20T05:24:56;29.53;;;18.00;;
3333;SDS011;1679;50.392;8.008;2022-11-20T05:27:22;34.67;;;18.57;;
3333;SDS011;1679;50.392;8.008;2022-11-20T05:29:47;29.30;;;16.27;;
3333;SDS011;1679;50.392;8.008;2022-11-20T05:32:13;29.37;;;16.80;;
3333;SDS011;1679;50.392;8.008;2022-11-20T05:34:38;25.43;;;15.47;;
3333;SDS011;1679;50.392;8.008;2022-11-20T05:37:04;27.10;;;15.63;;
3333;SDS011;1679;50.392;8.008;2022-11-20T05:39:31;30.27;;;16.67;;
3333;SDS011;1679;50.392;8.008;2022-11-20T05:41:56;29.10;;;15.00;;
3333;SDS011;1679;50.392;8.008;2022-11-20T05:44:40;29.03;;;16.20;;
3333;SDS011;1679;50.392;8.008;2022-11-20T05:47:06;29.27;;;16.23;;
3333;SDS011;1679;50.392;8.008;2022-11-20T05:49:31;27.87;;;16.40;;
3333;SDS011;1679;50.392;8.008;2022-11-20T05:51:57;27.20;;;15.40;;
3333;SDS011;1679;50.392;8.008;2022-11-20T05:54:24;25.90;;;14.97;;
3333;SDS011;1679;50.392;8.008;2022-11-20T05:56:49;30.67;;;17.07;;
3333;SDS011;1679;50.392;8.008;2022-11-20T05:59:15;28.77;;;16.30;;
3333;SDS011;1679;50.392;8.008;2022-11-20T06:01:40;26.90;;;15.70;;
3333;SDS011;1679;50.392;8.008;2022-11-20T06:04:06;31.13;;;17.10;;
3333;SDS011;1679;50.392;8.008;2022-11-20T06:06:32;30.37;;;16.67;;
3333;SDS011;1679;50.392;8.008;2022-11-20T06:08:58;28.03;;;16.57;;
3333;SDS011;1679;50.392;8.008;2022-11-20T06:11:24;27.60;;;15.60;;
3333;SDS011;1679;50.392;8.008;2022-11-20T06:13:50;25.40;;;15.20;;
3333;SDS011;1679;50.392;8.008;2022-11-20T06:16:16;22.90;;;14.50;;
3333;SDS011;1679;50.392;8.008;2022-11-20T06:18:43;23.17;;;14.20;;
3333;SDS011;1679;50.392;8.008;2022-11-20T06:21:13;29.10;;;16.60;;
3333;SDS011;1679;50.392;8.008;2022-11-20T06:23:41;27.20;;;16.00;;
3333;SDS011;1679;50.392;8.008;2022-11-20T06:26:08;31.33;;;16.60;;
3333;SDS011;1679;50.392;8.008;2022-11-20T06:28:42;26.07;;;15.80;;
3333;SDS011;1679;50.392;8.008;2022-11-20T06:31:09;28.43;;;16.73;;
3333;SDS011;1679;50.392;8.008;2022-11-20T06:33:36;28.80;;;15.23;;
3333;SDS011;1679;50.392;8.008;2022-11-20T06:36:02;31.03;;;16.03;;
3333;SDS011;1679;50.392;8.008;2022-11-20T06:38:29;28.63;;;15.40;;
3333;SDS011;1679;50.392;8.008;2022-11-20T06:40:55;27.63;;;16.13;;
3333;SDS011;1679;50.392;8.008;2022-11-20T06:43:21;30.27;;;16.03;;
3333;SDS011;1679;50.392;8.008;2022-11-20T06:45:53;27.23;;;15.40;;
3333;SDS011;1679;50.392;8.008;2022-11-20T06:48:20;30.00;;;16.97;;
3333;SDS011;1679;50.392;8.008;2022-11-20T06:50:46;30.50;;;16.90;;
3333;SDS011;1679;50.392;8.008;2022-11-20T06:53:11;31.20;;;17.37;;
3333;SDS011;1679;50.392;8.008;2022-11-20T06:55:37;34.40;;;17.93;;
3333;SDS011;1679;50.392;8.008;2022-11-20T06:58:09;32.10;;;17.93;;
3333;SDS011;1679;50.392;8.008;2022-11-20T07:00:34;33.97;;;18.37;;
3333;SDS011;1679;50.392;8.008;2022-11-20T07:03:03;32.23;;;17.90;;
3333;SDS011;1679;50.392;8.008;2022-11-20T07:05:29;30.67;;;19.50;;
3333;SDS011;1679;50.392;8.008;2022-11-20T07:07:55;27.43;;;16.57;;
3333;SDS011;1679;50.392;8.008;2022-11-20T07:10:21;33.37;;;18.83;;
3333;SDS011;1679;50.392;8.008;2022-11-20T07:12:49;32.70;;;18.27;;
3333;SDS011;1679;50.392;8.008;2022-11-20T07:15:16;36.33;;;19.17;;
3333;SDS011;1679;50.392;8.008;2022-11-20T07:17:42;34.73;;;20.33;;
3333;SDS011;1679;50.392;8.008;2022-11-20T07:20:09;35.20;;;18.33;;
3333;SDS011;1679;50.392;8.008;2022-11-20T07:22:34;33.67;;;19.40;;
3333;SDS011;1679;50.392;8.008;2022-11-20T07:25:00;35.50;;;19.00;;
3333;SDS011;1679;50.392;8.008;2022-11-20T07:27:26;37.10;;;19.40;;
3333;SDS011;1679;50.392;8.008;2022-11-20T07:29:52;38.90;;;20.60;;
3333;SDS011;1679;50.392;8.008;2022-11-20T07:32:18;36.10;;;18.50;;
3333;SDS011;1679;50.392;8.008;2022-11-20T07:34:43;36.87;;;19.80;;
3333;SDS011;1679;50.392;8.008;2022-11-20T07:37:09;36.97;;;20.87;;
3333;SDS011;1679;50.392;8.008;2022-11-20T07:39:34;36.00;;;19.67;;
3333;SDS011;1679;50.392;8.008;2022-11-20T07:42:00;45.90;;;22.30;;
3333;SDS011;1679;50.392;8.008;2022-11-20T07:44:25;40.90;;;21.90;;
3333;SDS011;1679;50.392;8.008;2022-11-20T07:46:51;39.33;;;22.00;;
3333;SDS011;1679;50.392;8.008;2022-11-20T07:49:16;41.57;;;23.77;;
3333;SDS011;1679;50.392;8.008;2022-11-20T07:51:42;43.73;;;23.90;;
3333;SDS011;1679;50.392;8.008;2022-11-20T07:54:08;47.20;;;26.27;;
3333;SDS011;1679;50.392;8.008;2022-11-20T07:56:33;37.47;;;22.77;;
3333;SDS011;1679;50.392;8.008;2022-11-20T07:59:01;42.90;;;23.57;;
3333;SDS011;1679;50.392;8.008;2022-11-20T08:01:26;43.57;;;22.33;;
3333;SDS011;1679;50.392;8.008;2022-11-20T08:03:52;35.77;;;21.33;;
3333;SDS011;1679;50.392;8.008;2022-11-20T08:06:17;37.87;;;20.83;;
3333;SDS011;1679;50.392;8.008;2022-11-20T08:08:44;37.10;;;21.47;;
3333;SDS011;1679;50.392;8.008;2022-11-20T08:11:09;42.17;;;20.97;;
3333;SDS011;1679;50.392;8.008;2022-11-20T08:13:54;42.83;;;20.10;;
3333;SDS011;1679;50.392;8.008;2022-11-20T08:16:38;37.40;;;19.37;;
3333;SDS011;1679;50.392;8.008;2022-11-20T08:19:04;39.47;;;20.27;;
3333;SDS011;1679;50.392;8.008;2022-11-20T08:21:30;40.43;;;20.60;;
3333;SDS011;1679;50.392;8.008;2022-11-20T08:23:56;34.13;;;18.90;;
3333;SDS011;1679;50.392;8.008;2022-11-20T08:26:24;37.07;;;19.40;;
3333;SDS011;1679;50.392;8.008;2022-11-20T08:28:53;39.47;;;20.60;;
3333;SDS011;1679;50.392;8.008;2022-11-20T08:31:19;41.00;;;21.03;;
3333;SDS011;1679;50.392;8.008;2022-11-20T08:33:45;43.00;;;21.97;;
3333;SDS011;1679;50.392;8.008;2022-11-20T08:36:11;38.23;;;19.77;;
3333;SDS011;1679;50.392;8.008;2022-11-20T08:38:36;36.70;;;19.30;;
3333;SDS011;1679;50.392;8.008;2022-11-20T08:41:02;46.27;;;22.40;;
3333;SDS011;1679;50.392;8.008;2022-11-20T08:43:47;42.23;;;20.40;;
3333;SDS011;1679;50.392;8.008;2022-11-20T08:46:13;42.40;;;20.60;;
3333;SDS011;1679;50.392;8.008;2022-11-20T08:48:38;42.70;;;22.23;;
3333;SDS011;1679;50.392;8.008;2022-11-20T08:51:04;35.80;;;20.57;;
3333;SDS011;1679;50.392;8.008;2022-11-20T08:53:30;40.10;;;21.13;;
3333;SDS011;1679;50.392;8.008;2022-11-20T08:55:56;35.50;;;19.73;;
3333;SDS011;1679;50.392;8.008;2022-11-20T08:58:22;36.03;;;19.67;;
3333;SDS011;1679;50.392;8.008;2022-11-20T09:00:47;38.27;;;20.00;;
3333;SDS011;1679;50.392;8.008;2022-11-20T09:03:13;46.43;;;21.40;;
3333;SDS011;1679;50.392;8.008;2022-11-20T09:05:38;34.30;;;19.70;;
3333;SDS011;1679;50.392;8.008;2022-11-20T09:08:04;40.97;;;21.67;;
3333;SDS011;1679;50.392;8.008;2022-11-20T09:10:30;34.20;;;20.40;;
3333;SDS011;1679;50.392;8.008;2022-11-20T09:12:55;38.63;;;21.17;;
3333;SDS011;1679;50.392;8.008;2022-11-20T09:15:21;36.50;;;20.60;;
3333;SDS011;1679;50.392;8.008;2022-11-20T09:17:54;45.73;;;19.10;;
3333;SDS011;1679;50.392;8.008;2022-11-20T09:20:22;42.07;;;20.93;;
3333;SDS011;1679;50.392;8.008;2022-11-20T09:22:47;37.40;;;20.37;;
3333;SDS011;1679;50.392;8.008;2022-11-20T09:25:13;33.20;;;20.17;;
3333;SDS011;1679;50.392;8.008;2022-11-20T09:27:38;40.80;;;20.40;;
3333;SDS011;1679;50.392;8.008;2022-11-20T09:30:06;139.23;;;82.63;;
3333;SDS011;1679;50.392;8.008;2022-11-20T09:32:32;41.30;;;23.90;;
3333;SDS011;1679;50.392;8.008;2022-11-20T09:34:57;40.10;;;23.00;;
3333;SDS011;1679;50.392;8.008;2022-11-20T09:37:23;41.07;;;23.07;;
3333;SDS011;1679;50.392;8.008;2022-11-20T09:39:48;43.17;;;25.03;;
3333;SDS011;1679;50.392;8.008;2022-11-20T09:42:17;39.60;;;23.13;;
3333;SDS011;1679;50.392;8.008;2022-11-20T09:52:47;41.83;;;20.93;;
3333;SDS011;1679;50.392;8.008;2022-11-20T09:55:30;46.03;;;26.80;;
3333;SDS011;1679;50.392;8.008;2022-11-20T09:57:56;46.07;;;26.13;;
3333;SDS011;1679;50.392;8.008;2022-11-20T10:00:24;37.50;;;20.97;;
3333;SDS011;1679;50.392;8.008;2022-11-20T10:02:55;34.17;;;17.93;;
3333;SDS011;1679;50.392;8.008;2022-11-20T10:08:19;31.93;;;16.80;;
3333;SDS011;1679;50.392;8.008;2022-11-20T10:11:17;39.60;;;20.90;;
3333;SDS011;1679;50.392;8.008;2022-11-20T10:16:54;31.37;;;17.13;;
3333;SDS011;1679;50.392;8.008;2022-11-20T10:22:39;32.63;;;19.03;;
3333;SDS011;1679;50.392;8.008;2022-11-20T10:30:36;37.23;;;20.50;;
3333;SDS011;1679;50.392;8.008;2022-11-20T10:33:19;35.63;;;20.53;;
3333;SDS011;1679;50.392;8.008;2022-11-20T10:35:52;34.27;;;20.27;;
3333;SDS011;1679;50.392;8.008;2022-11-20T10:38:24;36.07;;;20.87;;
3333;SDS011;1679;50.392;8.008;2022-11-20T10:41:00;32.50;;;20.77;;
3333;SDS011;1679;50.392;8.008;2022-11-20T10:43:46;38.50;;;20.63;;
3333;SDS011;1679;50.392;8.008;2022-11-20T10:46:17;35.10;;;20.40;;
3333;SDS011;1679;50.392;8.008;2022-11-20T10:48:47;33.10;;;20.60;;
3333;SDS011;1679;50.392;8.008;2022-11-20T10:51:30;34.83;;;19.37;;
3333;SDS011;1679;50.392;8.008;2022-11-20T10:54:09;41.40;;;21.90;;
3333;SDS011;1679;50.392;8.008;2022-11-20T10:56:58;32.70;;;18.07;;
3333;SDS011;1679;50.392;8.008;2022-11-20T11:02:24;36.53;;;19.90;;
3333;SDS011;1679;50.392;8.008;2022-11-20T11:04:58;35.20;;;19.03;;
3333;SDS011;1679;50.392;8.008;2022-11-20T11:07:35;39.07;;;21.07;;
3333;SDS011;1679;50.392;8.008;2022-11-20T11:10:12;38.37;;;20.93;;
3333;SDS011;1679;50.392;8.008;2022-11-20T11:12:48;39.40;;;21.00;;
3333;SDS011;1679;50.392;8.008;2022-11-20T11:15:15;35.60;;;20.93;;
3333;SDS011;1679;50.392;8.008;2022-11-20T11:18:10;34.77;;;20.00;;
3333;SDS011;1679;50.392;8.008;2022-11-20T11:20:36;30.60;;;18.73;;
3333;SDS011;1679;50.392;8.008;2022-11-20T11:23:02;34.23;;;20.60;;
3333;SDS011;1679;50.392;8.008;2022-11-20T11:25:33;34.50;;;18.43;;
3333;SDS011;1679;50.392;8.008;2022-11-20T11:28:04;33.93;;;18.50;;
3333;SDS011;1679;50.392;8.008;2022-11-20T11:30:44;27.63;;;17.20;;
3333;SDS011;1679;50.392;8.008;2022-11-20T11:33:20;35.50;;;18.40;;
3333;SDS011;1679;50.392;8.008;2022-11-20T11:35:48;27.93;;;18.17;;
3333;SDS011;1679;50.392;8.008;2022-11-20T11:38:43;31.60;;;19.40;;
3333;SDS011;1679;50.392;8.008;2022-11-20T11:41:09;34.63;;;19.17;;
3333;SDS011;1679;50.392;8.008;2022-11-20T11:43:48;32.20;;;17.10;;
3333;SDS011;1679;50.392;8.008;2022-11-20T11:46:37;28.50;;;16.77;;
3333;SDS011;1679;50.392;8.008;2022-11-20T11:51:36;30.23;;;16.57;;
3333;SDS011;1679;50.392;8.008;2022-11-20T11:55:03;26.53;;;16.20;;
3333;SDS011;1679;50.392;8.008;2022-11-20T11:57:16;27.10;;;15.57;;
3333;SDS011;1679;50.392;8.008;2022-11-20T12:00:10;29.77;;;17.77;;
3333;SDS011;1679;50.392;8.008;2022-11-20T12:07:49;27.27;;;18.47;;
3333;SDS011;1679;50.392;8.008;2022-11-20T12:10:37;29.10;;;16.17;;
3333;SDS011;1679;50.392;8.008;2022-11-20T12:16:04;30.50;;;18.20;;
3333;SDS011;1679;50.392;8.008;2022-11-20T12:18:34;29.77;;;18.63;;
3333;SDS011;1679;50.392;8.008;2022-11-20T12:23:47;29.50;;;18.50;;
3333;SDS011;1679;50.392;8.008;2022-11-20T12:29:06;28.63;;;16.73;;
3333;SDS011;1679;50.392;8.008;2022-11-20T12:31:46;28.90;;;17.50;;
3333;SDS011;1679;50.392;8.008;2022-11-20T12:39:58;26.17;;;15.60;;
3333;SDS011;1679;50.392;8.008;2022-11-20T12:42:43;24.47;;;16.00;;
3333;SDS011;1679;50.392;8.008;2022-11-20T12:45:41;26.60;;;17.17;;
3333;SDS011;1679;50.392;8.008;2022-11-20T12:56:50;34.50;;;19.53;;
3333;SDS011;1679;50.392;8.008;2022-11-20T12:59:48;28.40;;;18.23;;
3333;SDS011;1679;50.392;8.008;2022-11-20T13:08:27;27.30;;;17.33;;
3333;SDS011;1679;50.392;8.008;2022-11-20T13:13:35;30.30;;;18.13;;
3333;SDS011;1679;50.392;8.008;2022-11-20T13:16:17;29.63;;;16.50;;
3333;SDS011;1679;50.392;8.008;2022-11-20T13:18:50;30.93;;;19.73;;
3333;SDS011;1679;50.392;8.008;2022-11-20T13:21:22;30.43;;;17.00;;
3333;SDS011;1679;50.392;8.008;2022-11-20T13:24:20;27.67;;;16.40;;
3333;SDS011;1679;50.392;8.008;2022-11-20T13:27:03;28.00;;;15.90;;
3333;SDS011;1679;50.392;8.008;2022-11-20T13:29:30;32.43;;;18.40;;
3333;SDS011;1679;50.392;8.008;2022-11-20T13:32:16;28.80;;;18.03;;
3333;SDS011;1679;50.392;8.008;2022-11-20T13:42:34;30.43;;;18.47;;
3333;SDS011;1679;50.392;8.008;2022-11-20T13:45:09;32.13;;;18.00;;
3333;SDS011;1679;50.392;8.008;2022-11-20T13:47:48;28.30;;;17.37;;
3333;SDS011;1679;50.392;8.008;2022-11-20T13:50:16;28.40;;;17.00;;
3333;SDS011;1679;50.392;8.008;2022-11-20T13:55:23;29.33;;;17.10;;
3333;SDS011;1679;50.392;8.008;2022-11-20T13:58:07;28.60;;;17.80;;
3333;SDS011;1679;50.392;8.008;2022-11-20T14:01:11;34.10;;;18.73;;
3333;SDS011;1679;50.392;8.008;2022-11-20T14:03:44;33.07;;;18.27;;
3333;SDS011;1679;50.392;8.008;2022-11-20T14:06:21;34.70;;;19.43;;
3333;SDS011;1679;50.392;8.008;2022-11-20T14:08:56;34.67;;;19.30;;
3333;SDS011;1679;50.392;8.008;2022-11-20T14:11:27;35.53;;;19.53;;
3333;SDS011;1679;50.392;8.008;2022-11-20T14:14:04;33.13;;;20.57;;
3333;SDS011;1679;50.392;8.008;2022-11-20T14:16:47;32.70;;;19.60;;
3333;SDS011;1679;50.392;8.008;2022-11-20T14:21:45;35.37;;;20.93;;
3333;SDS011;1679;50.392;8.008;2022-11-20T14:24:20;38.60;;;20.20;;
3333;SDS011;1679;50.392;8.008;2022-11-20T14:26:47;33.40;;;19.70;;
3333;SDS011;1679;50.392;8.008;2022-11-20T14:29:15;37.17;;;20.23;;
3333;SDS011;1679;50.392;8.008;2022-11-20T14:31:43;33.87;;;19.00;;
3333;SDS011;1679;50.392;8.008;2022-11-20T14:34:17;38.23;;;19.50;;
3333;SDS011;1679;50.392;8.008;2022-11-20T14:36:46;33.70;;;20.17;;
3333;SDS011;1679;50.392;8.008;2022-11-20T14:39:19;34.70;;;20.30;;
3333;SDS011;1679;50.392;8.008;2022-11-20T14:41:52;35.13;;;19.67;;
3333;SDS011;1679;50.392;8.008;2022-11-20T14:44:20;34.40;;;18.57;;
3333;SDS011;1679;50.392;8.008;2022-11-20T14:46:50;34.20;;;19.63;;
3333;SDS011;1679;50.392;8.008;2022-11-20T14:49:17;33.40;;;18.37;;
3333;SDS011;1679;50.392;8.008;2022-11-20T14:51:43;36.97;;;18.73;;
3333;SDS011;1679;50.392;8.008;2022-11-20T14:54:14;41.93;;;20.23;;
3333;SDS011;1679;50.392;8.008;2022-11-20T14:56:41;35.10;;;20.90;;
3333;SDS011;1679;50.392;8.008;2022-11-20T14:59:21;38.57;;;21.80;;
3333;SDS011;1679;50.392;8.008;2022-11-20T15:02:00;40.33;;;21.70;;
3333;SDS011;1679;50.392;8.008;2022-11-20T15:04:26;44.80;;;22.80;;
3333;SDS011;1679;50.392;8.008;2022-11-20T15:06:53;42.20;;;21.80;;
3333;SDS011;1679;50.392;8.008;2022-11-20T15:09:20;41.17;;;22.07;;
3333;SDS011;1679;50.392;8.008;2022-11-20T15:11:57;33.10;;;19.17;;
3333;SDS011;1679;50.392;8.008;2022-11-20T15:14:25;42.17;;;21.70;;
3333;SDS011;1679;50.392;8.008;2022-11-20T15:16:52;41.67;;;22.10;;
3333;SDS011;1679;50.392;8.008;2022-11-20T15:19:19;37.03;;;20.33;;
3333;SDS011;1679;50.392;8.008;2022-11-20T15:21:49;37.67;;;21.70;;
3333;SDS011;1679;50.392;8.008;2022-11-20T15:24:16;39.33;;;22.20;;
3333;SDS011;1679;50.392;8.008;2022-11-20T15:26:42;41.20;;;23.60;;
3333;SDS011;1679;50.392;8.008;2022-11-20T15:29:09;43.20;;;24.97;;
3333;SDS011;1679;50.392;8.008;2022-11-20T15:31:37;47.37;;;24.10;;
3333;SDS011;1679;50.392;8.008;2022-11-20T15:34:11;40.53;;;24.03;;
3333;SDS011;1679;50.392;8.008;2022-11-20T15:36:38;42.07;;;22.30;;
3333;SDS011;1679;50.392;8.008;2022-11-20T15:39:04;42.40;;;23.70;;
3333;SDS011;1679;50.392;8.008;2022-11-20T15:41:32;39.27;;;22.63;;
3333;SDS011;1679;50.392;8.008;2022-11-20T15:43:58;39.53;;;21.83;;
3333;SDS011;1679;50.392;8.008;2022-11-20T15:46:25;39.83;;;24.37;;
3333;SDS011;1679;50.392;8.008;2022-11-20T15:48:54;44.33;;;23.50;;
3333;SDS011;1679;50.392;8.008;2022-11-20T15:51:24;46.13;;;25.10;;
3333;SDS011;1679;50.392;8.008;2022-11-20T15:53:52;46.30;;;29.10;;
3333;SDS011;1679;50.392;8.008;2022-11-20T15:56:19;46.37;;;29.30;;
3333;SDS011;1679;50.392;8.008;2022-11-20T15:58:44;48.57;;;29.50;;
3333;SDS011;1679;50.392;8.008;2022-11-20T16:01:11;39.80;;;23.57;;
3333;SDS011;1679;50.392;8.008;2022-11-20T16:03:40;49.33;;;26.77;;
3333;SDS011;1679;50.392;8.008;2022-11-20T16:06:06;45.67;;;26.60;;
3333;SDS011;1679;50.392;8.008;2022-11-20T16:08:32;44.00;;;25.23;;
3333;SDS011;1679;50.392;8.008;2022-11-20T16:10:57;40.33;;;21.87;;
3333;SDS011;1679;50.392;8.008;2022-11-20T16:13:23;41.03;;;21.80;;
3333;SDS011;1679;50.392;8.008;2022-11-20T16:16:10;67.73;;;36.60;;
3333;SDS011;1679;50.392;8.008;2022-11-20T16:18:48;64.47;;;34.10;;
3333;SDS011;1679;50.392;8.008;2022-11-20T16:21:14;49.97;;;28.10;;
3333;SDS011;1679;50.392;8.008;2022-11-20T16:23:39;51.20;;;28.10;;
3333;SDS011;1679;50.392;8.008;2022-11-20T16:26:09;38.00;;;23.27;;
3333;SDS011;1679;50.392;8.008;2022-11-20T16:28:39;37.70;;;22.97;;